Time;durP1;ratioP1;P1;durP2;ratioP2;P2;SDS_P1;SDS_P2;PMS_P1;PMS_P2;Temp;Humidity;BMP_temperature;BMP_pressure;BME280_temperature;BME280_humidity;BME280_pressure;Samples;Min_cycle;Max_cycle;Signal;HPM_P1;HPM_P2
2022/07/20 00:01:47;;;;;;;2.15;1.73;;;;;;;20.18;nan;-24378.31;4975303;28;20243;-61
2022/07/20 00:04:12;;;;;;;2.80;2.03;;;;;;;20.13;nan;-24376.94;4980907;28;20650;-61
2022/07/20 00:06:38;;;;;;;2.90;2.10;;;;;;;19.97;nan;-24372.63;4980062;28;20185;-63
2022/07/20 00:11:47;;;;;;;2.00;1.65;;;;;;;19.45;nan;-24358.16;4977781;28;20308;-61
2022/07/20 00:14:13;;;;;;;2.10;1.90;;;;;;;19.57;nan;-24361.66;4979211;28;20269;-60
2022/07/20 00:16:39;;;;;;;2.03;1.70;;;;;;;19.70;nan;-24365.13;4978379;28;20551;-61
2022/07/20 00:19:04;;;;;;;3.00;1.58;;;;;;;19.70;nan;-24365.13;4975320;28;20189;-62
2022/07/20 00:21:31;;;;;;;2.47;1.77;;;;;;;19.42;nan;-24357.59;4979931;28;20545;-62
2022/07/20 00:23:56;;;;;;;2.03;1.80;;;;;;;19.02;nan;-24346.34;4976990;28;20197;-62
2022/07/20 00:26:22;;;;;;;2.22;1.75;;;;;;;19.19;nan;-24351.22;4979975;28;20178;-61
2022/07/20 00:28:50;;;;;;;3.88;1.85;;;;;;;18.86;nan;-24342.03;4973587;28;20263;-62
2022/07/20 00:31:16;;;;;;;3.85;1.90;;;;;;;19.12;nan;-24349.25;4975782;28;20201;-62
2022/07/20 00:33:44;;;;;;;1.85;1.45;;;;;;;;;;4975140;28;20188;-62
2022/07/20 00:36:09;;;;;;;2.88;2.10;;;;;;;18.63;nan;-24335.63;4977460;28;20177;-61
2022/07/20 00:38:35;;;;;;;2.80;2.05;;;;;;;18.74;nan;-24338.69;4972972;28;20236;-61
2022/07/20 00:41:00;;;;;;;3.25;2.15;;;;;;;18.42;nan;-24329.91;4975698;28;20185;-61
2022/07/20 00:43:26;;;;;;;3.13;2.00;;;;;;;18.78;nan;-24339.78;4975298;28;20669;-62
2022/07/20 00:45:51;;;;;;;3.90;1.88;;;;;;;17.33;nan;-24299.91;4973874;28;20177;-60
2022/07/20 00:48:16;;;;;;;2.88;2.00;;;;;;;17.95;nan;-24316.94;4973558;28;20279;-61
2022/07/20 00:50:42;;;;;;;2.67;2.03;;;;;;;18.16;nan;-24322.66;4975264;28;20240;-61
2022/07/20 00:53:08;;;;;;;2.30;1.95;;;;;;;17.95;nan;-24317.09;4975220;28;20228;-61
2022/07/20 00:55:35;;;;;;;4.82;2.20;;;;;;;18.35;nan;-24328.09;4977571;28;20231;-61
2022/07/20 00:58:01;;;;;;;3.35;2.42;;;;;;;18.04;nan;-24319.59;4972539;28;20252;-60
2022/07/20 01:00:26;;;;;;;2.67;1.98;;;;;;;18.23;nan;-24324.75;4975474;28;20602;-61
2022/07/20 01:02:51;;;;;;;2.95;2.45;;;;;;;17.78;nan;-24312.34;4977780;28;20220;-61
2022/07/20 01:05:17;;;;;;;2.10;1.77;;;;;;;17.78;nan;-24312.34;4973303;28;20195;-61
2022/07/20 01:07:48;;;;;;;2.17;1.90;;;;;;;17.85;nan;-24314.28;4977991;28;20248;-60
2022/07/20 01:10:15;;;;;;;3.50;2.05;;;;;;;17.59;nan;-24307.03;4975696;28;20177;-61
2022/07/20 01:12:47;;;;;;;2.25;1.95;;;;;;;17.99;nan;-24318.19;4969886;28;20660;-62
2022/07/20 01:15:13;;;;;;;3.28;2.03;;;;;;;17.99;nan;-24318.19;4970504;28;20185;-61
2022/07/20 01:17:38;;;;;;;2.28;1.95;;;;;;;17.93;nan;-24316.38;4970457;28;20697;-61
2022/07/20 01:20:04;;;;;;;2.47;1.88;;;;;;;;;;4967693;28;20569;-60
2022/07/20 01:22:29;;;;;;;4.50;2.20;;;;;;;17.47;nan;-24303.81;4972000;28;20263;-60
2022/07/20 01:24:55;;;;;;;2.83;1.90;;;;;;;17.47;nan;-24303.81;4968116;28;20218;-61
2022/07/20 01:27:21;;;;;;;2.92;2.10;;;;;;;17.38;nan;-24301.31;4970574;28;20205;-61
2022/07/20 01:29:46;;;;;;;2.60;2.00;;;;;;;17.61;nan;-24307.75;4969813;28;20571;-61
2022/07/20 01:32:12;;;;;;;2.83;2.60;;;;;;;11.29;nan;-24132.44;4971727;28;20291;-62
2022/07/20 01:34:37;;;;;;;3.50;2.10;;;;;;;17.28;nan;-24298.53;4973119;28;20185;-62
2022/07/20 01:37:03;;;;;;;3.15;2.20;;;;;;;17.56;nan;-24306.34;4968633;28;20656;-62
2022/07/20 01:39:28;;;;;;;2.53;1.88;;;;;;;17.34;nan;-24300.06;4979546;28;20200;-61
2022/07/20 01:41:54;;;;;;;3.33;2.40;;;;;;;17.34;nan;-24300.06;4965683;28;20186;-60
2022/07/20 01:44:21;;;;;;;2.92;1.98;;;;;;;17.21;nan;-24296.56;4966796;28;20220;-61
2022/07/20 01:46:51;;;;;;;3.58;2.53;;;;;;;17.33;nan;-24299.91;4966199;28;20197;-62
2022/07/20 01:49:17;;;;;;;2.67;2.35;;;;;;;17.33;nan;-24299.91;4968759;28;20707;-61
2022/07/20 01:51:43;;;;;;;3.10;2.33;;;;;;;16.15;nan;-24267.22;4970342;28;20196;-61
2022/07/20 01:54:09;;;;;;;2.50;1.92;;;;;;;17.40;nan;-24301.72;4971433;28;20197;-59
2022/07/20 01:56:34;;;;;;;3.80;2.58;;;;;;;17.51;nan;-24304.94;4972231;28;20185;-61
2022/07/20 01:59:00;;;;;;;3.25;2.40;;;;;;;16.80;nan;-24285.25;4972313;28;20673;-61
2022/07/20 02:01:25;;;;;;;3.53;2.33;;;;;;;16.99;nan;-24290.44;4974474;28;20188;-62
2022/07/20 02:03:51;;;;;;;5.00;2.72;;;;;;;17.31;nan;-24299.22;4972266;28;20195;-60
2022/07/20 02:06:16;;;;;;;4.97;2.78;;;;;;;17.33;nan;-24299.91;4972843;28;20573;-60
2022/07/20 02:08:42;;;;;;;3.78;2.47;;;;;;;17.28;nan;-24298.53;4971091;28;20205;-61
2022/07/20 02:11:07;;;;;;;3.10;2.58;;;;;;;17.13;nan;-24294.47;4974190;28;20260;-61
2022/07/20 02:13:36;;;;;;;4.72;3.00;;;;;;;17.28;nan;-24298.53;4971330;28;20371;-61
2022/07/20 02:16:17;;;;;;;4.38;2.65;;;;;;;17.46;nan;-24303.56;4972026;28;21576;-61
2022/07/20 02:18:55;;;;;;;3.47;2.65;;;;;;;17.76;nan;-24311.78;4974052;28;20267;-61
2022/07/20 02:21:21;;;;;;;3.70;2.67;;;;;;;8.03;nan;-24041.28;4969866;28;20180;-62
2022/07/20 02:23:47;;;;;;;3.78;2.80;;;;;;;17.61;nan;-24307.59;4971395;28;20583;-62
2022/07/20 02:26:12;;;;;;;3.70;2.40;;;;;;;17.60;nan;-24307.47;4972816;28;20189;-61
2022/07/20 02:28:38;;;;;;;3.47;2.42;;;;;;;17.57;nan;-24306.63;4971449;28;20223;-61
2022/07/20 02:31:05;;;;;;;6.15;2.90;;;;;;;17.55;nan;-24306.06;4971717;28;20169;-62
2022/07/20 02:33:30;;;;;;;3.85;2.88;;;;;;;17.55;nan;-24306.06;4970350;28;20691;-61
2022/07/20 02:35:56;;;;;;;3.20;2.60;;;;;;;17.32;nan;-24299.63;4969827;28;20220;-61
2022/07/20 02:38:21;;;;;;;4.47;3.13;;;;;;;17.17;nan;-24295.44;4971793;28;20267;-61
2022/07/20 02:40:47;;;;;;;8.30;2.70;;;;;;;17.28;nan;-24298.53;4974182;28;20287;-61
2022/07/20 02:43:13;;;;;;;3.78;2.40;;;;;;;17.31;nan;-24299.38;4973913;28;20221;-60
2022/07/20 02:45:38;;;;;;;4.53;2.47;;;;;;;17.19;nan;-24296.16;4971283;28;20181;-61
2022/07/20 02:48:04;;;;;;;3.83;2.33;;;;;;;17.35;nan;-24300.34;4971450;28;20224;-60
2022/07/20 02:50:33;;;;;;;3.47;2.70;;;;;;;17.16;nan;-24295.31;4970208;28;20653;-60
2022/07/20 02:52:59;;;;;;;4.55;3.03;;;;;;;17.18;nan;-24295.72;4969353;28;20249;-61
2022/07/20 02:55:24;;;;;;;4.15;2.40;;;;;;;17.08;nan;-24292.94;4971048;28;20216;-63
2022/07/20 02:58:26;;;;;;;3.50;2.78;;;;;;;17.32;nan;-24299.50;4971421;28;20276;-62
2022/07/20 03:00:53;;;;;;;3.70;2.40;;;;;;;16.96;nan;-24289.72;4972567;28;20173;-64
2022/07/20 03:03:18;;;;;;;3.70;2.50;;;;;;;17.25;nan;-24297.56;4969922;28;20255;-60
2022/07/20 03:05:44;;;;;;;4.22;2.58;;;;;;;;;;4967290;28;20355;-61
2022/07/20 03:08:09;;;;;;;7.38;2.50;;;;;;;17.41;nan;-24302.00;4967310;28;21039;-61
2022/07/20 03:10:35;;;;;;;4.05;2.95;;;;;;;17.31;nan;-24299.38;4966155;28;20317;-61
2022/07/20 03:13:01;;;;;;;2.67;2.22;;;;;;;17.29;nan;-24298.81;4965155;28;20220;-60
2022/07/20 03:15:27;;;;;;;3.47;2.72;;;;;;;17.93;nan;-24316.53;4966047;28;20272;-61
2022/07/20 03:17:54;;;;;;;6.43;3.08;;;;;;;18.34;nan;-24327.69;4966606;28;20199;-61
2022/07/20 03:20:31;;;;;;;3.40;2.45;;;;;;;18.69;nan;-24337.28;4966004;28;20254;-61
2022/07/20 03:22:58;;;;;;;4.95;2.72;;;;;;;19.29;nan;-24353.84;4966192;28;20187;-60
2022/07/20 03:25:24;;;;;;;3.80;2.63;;;;;;;19.92;nan;-24371.09;4966045;28;20205;-60
2022/07/20 03:27:54;;;;;;;2.58;2.15;;;;;;;20.70;nan;-24392.63;4964557;28;20209;-61
2022/07/20 03:30:20;;;;;;;2.75;2.30;;;;;;;21.13;nan;-24404.56;4965722;28;20688;-61
2022/07/20 03:32:46;;;;;;;4.40;2.30;;;;;;;21.91;nan;-24425.75;4964746;28;20220;-61
2022/07/20 03:35:12;;;;;;;3.22;2.40;;;;;;;22.23;nan;-24434.63;4964746;28;20661;-61
2022/07/20 03:37:37;;;;;;;2.85;2.10;;;;;;;;;;4961844;28;20248;-61
2022/07/20 03:40:05;;;;;;;2.92;2.05;;;;;;;23.61;nan;-24472.22;4964072;28;20271;-61
2022/07/20 03:42:31;;;;;;;3.15;2.35;;;;;;;24.01;nan;-24483.25;4965955;28;20173;-61
2022/07/20 03:44:57;;;;;;;3.63;2.40;;;;;;;24.07;nan;-24484.78;4964942;28;20192;-61
2022/07/20 03:47:23;;;;;;;4.15;2.50;;;;;;;24.62;nan;-24499.81;4964719;28;20197;-61
2022/07/20 03:49:50;;;;;;;4.15;2.67;;;;;;;25.35;nan;-24519.78;4967708;28;20303;-62
2022/07/20 03:52:16;;;;;;;5.38;2.80;;;;;;;25.35;nan;-24519.78;4965483;28;20645;-61
2022/07/20 03:54:41;;;;;;;4.70;2.47;;;;;;;25.36;nan;-24520.03;4966543;28;20185;-60
2022/07/20 03:57:07;;;;;;;4.10;2.70;;;;;;;26.17;nan;-24542.03;4964272;28;20653;-61
2022/07/20 03:59:33;;;;;;;2.83;2.30;;;;;;;25.93;nan;-24535.44;4963466;28;20177;-63
2022/07/20 04:01:59;;;;;;;3.75;2.90;;;;;;;26.66;nan;-24555.22;4964341;28;20182;-62
2022/07/20 04:04:25;;;;;;;4.05;2.42;;;;;;;;;;4963972;28;20199;-61
2022/07/20 04:06:50;;;;;;;3.13;2.28;;;;;;;26.08;nan;-24539.56;4964570;28;20185;-62
2022/07/20 04:09:43;;;;;;;2.90;2.30;;;;;;;27.60;nan;-24580.88;4963590;28;20227;-60
2022/07/20 04:12:04;;;;;;;3.33;2.55;;;;;;;27.97;nan;-24590.75;4966426;28;20197;-61
2022/07/20 04:14:29;;;;;;;3.35;2.40;;;;;;;28.19;nan;-24596.63;4965337;28;20193;-63
2022/07/20 04:16:54;;;;;;;3.97;2.50;;;;;;;28.65;nan;-24609.06;4965062;28;20262;-62
2022/07/20 04:19:20;;;;;;;4.07;2.22;;;;;;;28.78;nan;-24612.63;4966690;28;20725;-61
2022/07/20 04:21:46;;;;;;;3.35;2.40;;;;;;;28.98;nan;-24618.09;4969729;28;20193;-62
2022/07/20 04:24:11;;;;;;;3.20;2.63;;;;;;;29.39;nan;-24629.31;4966459;28;20195;-62
2022/07/20 04:26:37;;;;;;;3.60;2.70;;;;;;;30.18;nan;-24650.44;4962856;28;20203;-62
2022/07/20 04:29:02;;;;;;;2.88;2.00;;;;;;;29.80;nan;-24640.34;4966687;28;20218;-60
2022/07/20 04:31:28;;;;;;;4.15;2.50;;;;;;;30.25;nan;-24652.34;4971494;28;20226;-61
2022/07/20 04:33:53;;;;;;;2.35;2.00;;;;;;;29.65;nan;-24636.25;4969978;28;20192;-60
2022/07/20 04:36:19;;;;;;;3.70;2.22;;;;;;;30.26;nan;-24652.63;4968325;28;20200;-62
2022/07/20 04:38:44;;;;;;;3.05;2.30;;;;;;;30.39;nan;-24656.19;4971100;28;20228;-62
2022/07/20 04:41:09;;;;;;;3.08;2.20;;;;;;;30.74;nan;-24665.44;4975141;28;20244;-62
2022/07/20 04:43:35;;;;;;;2.70;2.30;;;;;;;30.24;nan;-24652.09;4976230;28;20192;-62
2022/07/20 04:46:00;;;;;;;2.53;2.10;;;;;;;30.09;nan;-24648.00;4974468;28;20189;-61
2022/07/20 04:48:26;;;;;;;2.75;2.15;;;;;;;29.17;nan;-24623.28;4974538;28;20196;-62
2022/07/20 04:50:51;;;;;;;4.57;2.33;;;;;;;28.42;nan;-24603.06;4976767;28;20181;-64
2022/07/20 04:53:17;;;;;;;2.30;2.00;;;;;;;26.82;nan;-24559.75;4974611;28;20609;-59
2022/07/20 04:55:42;;;;;;;3.30;2.50;;;;;;;27.56;nan;-24579.78;4971761;28;20199;-63
2022/07/20 04:58:08;;;;;;;4.45;2.58;;;;;;;26.54;nan;-24551.94;4977828;28;20177;-61
2022/07/20 05:00:33;;;;;;;4.30;2.38;;;;;;;25.87;nan;-24533.81;4973315;28;20248;-60
2022/07/20 05:02:58;;;;;;;2.83;2.22;;;;;;;26.46;nan;-24549.75;4974341;28;20557;-61
2022/07/20 05:05:24;;;;;;;3.35;2.53;;;;;;;26.46;nan;-24524.31;4971599;28;20559;-62
2022/07/20 05:07:49;;;;;;;3.22;2.55;;;;;;;26.18;nan;-24542.31;4968468;28;20204;-62
2022/07/20 05:10:15;;;;;;;3.33;2.55;;;;;;;26.92;nan;-24562.22;4968833;28;20467;-62
2022/07/20 05:12:40;;;;;;;3.00;2.35;;;;;;;26.01;nan;-24537.50;4973082;28;20264;-61
2022/07/20 05:15:06;;;;;;;2.97;2.47;;;;;;;26.09;nan;-24539.84;4966288;28;20216;-60
2022/07/20 05:17:31;;;;;;;3.83;2.80;;;;;;;25.60;nan;-24526.50;4968677;28;20192;-60
2022/07/20 05:19:57;;;;;;;3.00;2.42;;;;;;;25.94;nan;-24535.72;4969436;28;20270;-59
2022/07/20 05:22:22;;;;;;;4.22;2.65;;;;;;;26.03;nan;-24538.06;4977438;28;20212;-61
2022/07/20 05:24:48;;;;;;;2.47;2.20;;;;;;;26.61;nan;-24554.00;4972909;28;20351;-61
2022/07/20 05:27:13;;;;;;;2.85;2.08;;;;;;;26.65;nan;-24554.97;4978938;28;20280;-61
2022/07/20 05:29:39;;;;;;;3.22;2.47;;;;;;;27.06;nan;-24566.06;4977374;28;20181;-61
2022/07/20 05:32:04;;;;;;;4.93;2.20;;;;;;;27.60;nan;-24580.75;4976020;28;20503;-62
2022/07/20 05:34:30;;;;;;;2.85;2.25;;;;;;;27.64;nan;-24581.97;4973861;28;20177;-62
2022/07/20 05:36:55;;;;;;;6.93;3.25;;;;;;;26.59;nan;-24553.31;4978945;28;20284;-61
2022/07/20 05:39:20;;;;;;;3.47;1.90;;;;;;;25.97;nan;-24536.56;4973945;28;20303;-62
2022/07/20 05:41:47;;;;;;;2.88;2.20;;;;;;;25.34;nan;-24519.50;4979380;28;20181;-62
2022/07/20 05:44:15;;;;;;;4.03;2.28;;;;;;;25.36;nan;-24519.91;4974777;28;20185;-62
2022/07/20 05:46:40;;;;;;;4.25;2.60;;;;;;;25.21;nan;-24515.91;4979513;28;20176;-61
2022/07/20 05:49:06;;;;;;;4.38;2.03;;;;;;;25.40;nan;-24521.00;4978861;28;20270;-62
2022/07/20 05:51:31;;;;;;;3.65;2.05;;;;;;;25.24;nan;-24516.75;4979071;28;20594;-61
2022/07/20 05:53:57;;;;;;;2.40;2.20;;;;;;;24.99;nan;-24509.84;4976585;28;20209;-61
2022/07/20 05:56:22;;;;;;;3.13;2.17;;;;;;;24.26;nan;-24489.88;4977162;28;20188;-61
2022/07/20 05:58:48;;;;;;;2.83;2.53;;;;;;;23.98;nan;-24482.44;4978085;28;20649;-61
2022/07/20 06:01:13;;;;;;;2.65;2.05;;;;;;;23.63;nan;-24472.78;4976380;28;20193;-61
2022/07/20 06:03:39;;;;;;;2.75;2.22;;;;;;;23.67;nan;-24474.00;4974688;28;20184;-61
2022/07/20 06:06:04;;;;;;;3.05;2.15;;;;;;;23.86;nan;-24478.97;4977681;28;20181;-61
2022/07/20 06:08:30;;;;;;;5.18;2.20;;;;;;;23.78;nan;-24477.03;4974497;28;20210;-60
2022/07/20 06:10:55;;;;;;;2.38;1.88;;;;;;;23.98;nan;-24482.28;4976302;28;20181;-62
2022/07/20 06:13:21;;;;;;;2.85;2.17;;;;;;;23.84;nan;-24478.56;4972995;28;20185;-61
2022/07/20 06:15:46;;;;;;;3.42;2.20;;;;;;;23.93;nan;-24481.06;4974490;28;20264;-61
2022/07/20 06:18:11;;;;;;;3.15;2.13;;;;;;;24.46;nan;-24495.41;4976384;28;20288;-59
2022/07/20 06:20:37;;;;;;;4.72;2.50;;;;;;;24.41;nan;-24494.00;4974313;28;20333;-60
2022/07/20 06:23:02;;;;;;;3.67;2.30;;;;;;;24.59;nan;-24498.97;4976328;28;20193;-60
2022/07/20 06:25:28;;;;;;;4.35;3.00;;;;;;;24.62;nan;-24499.94;4976314;28;20229;-61
2022/07/20 06:27:53;;;;;;;3.80;2.53;;;;;;;25.03;nan;-24510.97;4974168;28;20279;-61
2022/07/20 06:30:20;;;;;;;3.30;2.13;;;;;;;25.17;nan;-24514.81;4973774;28;20185;-60
2022/07/20 06:32:45;;;;;;;6.53;2.58;;;;;;;25.35;nan;-24519.63;4973881;28;20192;-61
2022/07/20 06:35:11;;;;;;;7.55;2.80;;;;;;;25.46;nan;-24522.78;4974171;28;20177;-62
2022/07/20 06:37:38;;;;;;;3.17;2.28;;;;;;;25.64;nan;-24527.63;4935540;28;1114935;-60
2022/07/20 06:40:05;;;;;;;5.03;2.08;;;;;;;25.57;nan;-24525.69;4975315;28;20198;-60
2022/07/20 06:42:30;;;;;;;2.60;2.10;;;;;;;25.40;nan;-24521.16;4975103;28;20194;-61
2022/07/20 06:44:56;;;;;;;2.30;1.90;;;;;;;25.47;nan;-24523.06;4975159;28;20527;-60
2022/07/20 06:47:22;;;;;;;4.20;2.13;;;;;;;25.53;nan;-24524.59;4977035;28;20205;-62
2022/07/20 06:49:47;;;;;;;3.70;2.08;;;;;;;25.21;nan;-24515.78;4975079;28;20708;-60
2022/07/20 06:52:13;;;;;;;2.70;2.00;;;;;;;24.39;nan;-24493.59;4974629;28;20224;-62
2022/07/20 06:54:38;;;;;;;4.15;2.22;;;;;;;25.82;nan;-24532.44;4974958;28;20181;-61
2022/07/20 06:57:03;;;;;;;3.90;2.35;;;;;;;25.68;nan;-24528.56;4974807;28;20173;-62
2022/07/20 06:59:29;;;;;;;2.25;2.00;;;;;;;25.94;nan;-24535.88;4974768;28;20173;-62
2022/07/20 07:01:54;;;;;;;2.33;2.00;;;;;;;25.91;nan;-24534.91;4974839;28;20565;-62
2022/07/20 07:04:20;;;;;;;3.72;2.13;;;;;;;26.19;nan;-24542.59;4974932;28;20185;-62
2022/07/20 07:06:46;;;;;;;4.55;1.92;;;;;;;26.44;nan;-24549.34;4974782;28;20638;-62
2022/07/20 07:09:11;;;;;;;2.10;1.73;;;;;;;26.18;nan;-24542.31;4975602;28;20224;-62
2022/07/20 07:11:37;;;;;;;2.50;2.00;;;;;;;26.58;nan;-24553.19;4976090;28;20185;-61
2022/07/20 07:14:04;;;;;;;2.53;2.05;;;;;;;25.07;nan;-24512.06;4974429;28;20234;-60
2022/07/20 07:16:30;;;;;;;2.50;2.10;;;;;;;26.40;nan;-24548.09;4974729;28;20182;-62
2022/07/20 07:18:56;;;;;;;2.65;2.15;;;;;;;26.69;nan;-24556.19;4974354;28;20186;-61
2022/07/20 07:21:22;;;;;;;3.33;2.38;;;;;;;27.06;nan;-24566.06;4974396;28;20178;-62
2022/07/20 07:23:49;;;;;;;3.03;1.90;;;;;;;27.14;nan;-24568.41;4976871;28;20214;-62
2022/07/20 07:26:17;;;;;;;2.63;2.10;;;;;;;26.95;nan;-24563.19;4974170;28;20181;-62
2022/07/20 07:28:43;;;;;;;2.88;2.00;;;;;;;27.24;nan;-24571.16;4974215;28;20209;-61
2022/07/20 07:31:09;;;;;;;3.17;2.10;;;;;;;27.27;nan;-24571.84;4974171;28;20177;-59
2022/07/20 07:33:34;;;;;;;2.65;1.92;;;;;;;26.90;nan;-24561.81;4974245;28;20240;-60
2022/07/20 07:36:00;;;;;;;2.78;1.77;;;;;;;26.16;nan;-24541.78;4974368;28;20187;-60
2022/07/20 07:38:26;;;;;;;1.70;1.60;;;;;;;27.58;nan;-24580.19;4974135;28;20221;-59
2022/07/20 07:40:51;;;;;;;2.10;1.83;;;;;;;27.31;nan;-24572.78;4974074;28;20173;-61
2022/07/20 07:43:17;;;;;;;2.30;1.85;;;;;;;27.48;nan;-24577.44;4974181;28;20177;-62
2022/07/20 07:45:42;;;;;;;2.42;1.92;;;;;;;27.63;nan;-24581.56;4974151;28;20166;-61
2022/07/20 07:48:10;;;;;;;2.03;1.70;;;;;;;27.94;nan;-24590.06;4973121;28;20205;-61
2022/07/20 07:50:39;;;;;;;1.95;1.67;;;;;;;27.57;nan;-24579.91;4974224;28;20177;-60
2022/07/20 07:53:07;;;;;;;2.30;1.80;;;;;;;27.49;nan;-24577.88;4974045;28;20204;-61
2022/07/20 07:55:33;;;;;;;2.08;1.70;;;;;;;27.50;nan;-24578.16;4973992;28;20170;-60
2022/07/20 07:57:59;;;;;;;2.70;1.63;;;;;;;27.53;nan;-24578.81;4973907;28;20174;-61
2022/07/20 08:00:24;;;;;;;1.90;1.58;;;;;;;27.63;nan;-24581.56;4973813;28;20569;-60
2022/07/20 08:02:50;;;;;;;2.95;1.90;;;;;;;27.66;nan;-24582.53;4973790;28;20551;-60
2022/07/20 08:05:15;;;;;;;2.05;1.85;;;;;;;27.93;nan;-24589.78;4973881;28;20170;-61
2022/07/20 08:07:41;;;;;;;1.92;1.63;;;;;;;27.89;nan;-24588.69;4973645;28;20617;-60
2022/07/20 08:10:07;;;;;;;3.25;1.70;;;;;;;27.88;nan;-24588.41;4973528;28;20765;-62
2022/07/20 08:12:34;;;;;;;2.17;1.80;;;;;;;28.21;nan;-24597.19;4973748;28;20173;-60
2022/07/20 08:15:00;;;;;;;2.33;2.00;;;;;;;28.30;nan;-24599.78;4973525;28;20177;-59
2022/07/20 08:17:26;;;;;;;4.45;2.03;;;;;;;28.61;nan;-24608.13;4973560;28;20181;-59
2022/07/20 08:19:51;;;;;;;2.78;1.92;;;;;;;28.55;nan;-24606.47;4973359;28;20178;-60
2022/07/20 08:22:17;;;;;;;3.05;1.95;;;;;;;28.76;nan;-24612.22;4973218;28;20240;-60
2022/07/20 08:24:42;;;;;;;2.50;2.08;;;;;;;28.92;nan;-24616.59;4973349;28;20183;-60
2022/07/20 08:27:07;;;;;;;4.90;2.28;;;;;;;28.74;nan;-24611.69;4973285;28;20176;-61
2022/07/20 08:29:33;;;;;;;1.85;1.65;;;;;;;28.89;nan;-24615.78;4973398;28;20169;-60
2022/07/20 08:31:58;;;;;;;1.85;1.58;;;;;;;28.87;nan;-24615.22;4973274;28;20189;-61
2022/07/20 08:34:24;;;;;;;2.00;1.60;;;;;;;29.25;nan;-24625.47;4973191;28;20173;-59
2022/07/20 08:36:50;;;;;;;2.47;1.70;;;;;;;29.47;nan;-24631.34;4972851;28;20550;-61
2022/07/20 08:39:15;;;;;;;2.25;1.60;;;;;;;29.25;nan;-24625.34;4973397;28;20280;-59
2022/07/20 08:41:41;;;;;;;2.25;1.73;;;;;;;29.54;nan;-24633.25;4971953;28;20555;-61
2022/07/20 08:44:07;;;;;;;5.00;1.80;;;;;;;29.75;nan;-24638.84;4972995;28;20189;-59
2022/07/20 08:46:34;;;;;;;1.90;1.67;;;;;;;28.55;nan;-24606.63;4973707;28;20169;-60
2022/07/20 08:49:01;;;;;;;1.80;1.50;;;;;;;28.55;nan;-24626.16;4973201;28;20209;-60
2022/07/20 08:51:27;;;;;;;1.70;1.50;;;;;;;28.97;nan;-24617.81;4973110;28;20184;-61
2022/07/20 08:53:53;;;;;;;2.97;1.90;;;;;;;28.97;nan;-24617.56;4973295;28;20395;-61
2022/07/20 08:56:19;;;;;;;7.25;1.48;;;;;;;29.15;nan;-24622.59;4973185;28;20180;-60
2022/07/20 08:58:44;;;;;;;2.05;1.60;;;;;;;29.53;nan;-24633.00;4973250;28;20185;-62
2022/07/20 09:01:14;;;;;;;2.15;1.75;;;;;;;29.90;nan;-24642.81;4973477;28;20637;-60
2022/07/20 09:03:41;;;;;;;2.22;1.70;;;;;;;30.18;nan;-24650.59;4973203;28;20165;-60
2022/07/20 09:06:07;;;;;;;2.28;1.70;;;;;;;30.19;nan;-24650.72;4972818;28;20168;-60
2022/07/20 09:08:33;;;;;;;1.60;1.50;;;;;;;30.08;nan;-24647.72;4975083;28;20204;-60
2022/07/20 09:11:03;;;;;;;2.15;1.60;;;;;;;30.49;nan;-24658.91;4978110;28;20275;-62
2022/07/20 09:13:31;;;;;;;2.90;1.80;;;;;;;29.62;nan;-24635.44;4977078;28;20214;-61
2022/07/20 09:15:57;;;;;;;2.30;1.80;;;;;;;29.07;nan;-24620.56;4976293;28;20181;-60
2022/07/20 09:18:25;;;;;;;1.90;1.70;;;;;;;29.04;nan;-24619.75;4972986;28;20185;-61
2022/07/20 09:20:55;;;;;;;1.98;1.60;;;;;;;28.80;nan;-24613.31;4972355;28;20252;-61
2022/07/20 09:23:41;;;;;;;2.25;1.65;;;;;;;29.30;nan;-24626.84;4977693;28;20268;-60
2022/07/20 09:26:14;;;;;;;2.58;1.90;;;;;;;29.70;nan;-24637.63;4972857;28;20189;-60
2022/07/20 09:28:48;;;;;;;1.70;1.60;;;;;;;29.96;nan;-24644.47;4976839;28;20212;-59
2022/07/20 09:31:34;;;;;;;1.92;1.60;;;;;;;29.86;nan;-24641.84;4973636;28;20280;-61
2022/07/20 09:34:13;;;;;;;3.28;1.70;;;;;;;30.19;nan;-24650.72;4972685;28;20227;-59
2022/07/20 09:36:42;;;;;;;3.28;1.60;;;;;;;30.09;nan;-24648.00;4972733;28;20195;-60
2022/07/20 09:39:12;;;;;;;1.75;1.45;;;;;;;29.54;nan;-24633.13;4973203;28;20228;-60
2022/07/20 09:41:41;;;;;;;2.22;1.50;;;;;;;29.75;nan;-24639.00;4973959;28;20193;-59
2022/07/20 09:44:10;;;;;;;1.67;1.50;;;;;;;30.29;nan;-24653.59;4975113;28;20208;-61
2022/07/20 09:46:38;;;;;;;4.32;2.50;;;;;;;30.67;nan;-24663.66;4972899;28;20192;-60
2022/07/20 09:49:06;;;;;;;2.33;1.70;;;;;;;30.91;nan;-24670.22;4974664;28;20212;-59
2022/07/20 09:51:36;;;;;;;2.05;1.63;;;;;;;30.54;nan;-24660.25;4974780;28;20180;-61
2022/07/20 09:54:06;;;;;;;2.10;1.80;;;;;;;30.49;nan;-24658.91;4976980;28;20180;-59
2022/07/20 09:56:34;;;;;;;2.42;1.63;;;;;;;30.73;nan;-24665.16;4972874;28;20212;-59
2022/07/20 09:59:04;;;;;;;1.77;1.60;;;;;;;30.90;nan;-24669.94;4977041;28;20185;-60
2022/07/20 10:01:34;;;;;;;3.72;1.70;;;;;;;30.93;nan;-24670.63;4974439;28;20288;-61
2022/07/20 10:04:02;;;;;;;2.70;1.73;;;;;;;30.96;nan;-24671.44;4974624;28;20181;-60
2022/07/20 10:06:28;;;;;;;3.38;1.65;;;;;;;31.09;nan;-24674.97;4974844;28;20188;-60
2022/07/20 10:08:54;;;;;;;1.67;1.40;;;;;;;31.00;nan;-24672.66;4974685;28;20204;-61
2022/07/20 10:11:22;;;;;;;2.70;1.67;;;;;;;30.94;nan;-24671.03;4972570;28;20231;-61
2022/07/20 10:13:49;;;;;;;1.55;1.33;;;;;;;31.22;nan;-24678.50;4976061;28;20172;-61
2022/07/20 10:16:20;;;;;;;2.72;1.70;;;;;;;31.37;nan;-24682.44;4977453;28;20705;-61
2022/07/20 10:18:47;;;;;;;2.10;1.60;;;;;;;31.10;nan;-24675.25;4978597;28;20287;-60
2022/07/20 10:21:31;;;;;;;2.08;1.67;;;;;;;30.96;nan;-24671.56;4975848;28;20181;-61
2022/07/20 10:24:34;;;;;;;2.33;1.75;;;;;;;31.19;nan;-24677.69;4976255;28;20272;-61
2022/07/20 10:27:02;;;;;;;2.55;1.85;;;;;;;31.34;nan;-24681.63;4975782;28;20192;-60
2022/07/20 10:29:41;;;;;;;1.83;1.70;;;;;;;31.49;nan;-24685.84;4977764;28;20210;-59
2022/07/20 10:32:09;;;;;;;2.50;1.90;;;;;;;31.56;nan;-24687.63;4975827;28;20191;-60
2022/07/20 10:34:46;;;;;;;3.15;1.92;;;;;;;31.44;nan;-24684.50;4975813;28;20181;-60
2022/07/20 10:37:23;;;;;;;2.00;1.50;;;;;;;31.69;nan;-24691.03;4976003;28;20259;-59
2022/07/20 10:40:10;;;;;;;3.17;1.80;;;;;;;31.39;nan;-24683.13;4975555;28;20212;-61
2022/07/20 10:42:39;;;;;;;1.88;1.50;;;;;;;31.49;nan;-24685.72;4979953;28;20192;-61
2022/07/20 10:45:13;;;;;;;1.60;1.40;;;;;;;31.54;nan;-24687.06;4977780;28;20219;-61
2022/07/20 10:47:43;;;;;;;1.83;1.63;;;;;;;29.24;nan;-24625.06;4979848;28;20215;-60
2022/07/20 10:50:10;;;;;;;2.88;1.75;;;;;;;31.73;nan;-24692.09;4977550;28;20181;-60
2022/07/20 10:52:36;;;;;;;1.85;1.42;;;;;;;31.65;nan;-24689.94;4975481;28;20341;-60
2022/07/20 10:55:03;;;;;;;2.90;1.63;;;;;;;31.67;nan;-24690.47;4980312;28;20657;-60
2022/07/20 10:57:29;;;;;;;5.00;1.90;;;;;;;31.41;nan;-24683.53;4977554;28;20188;-60
2022/07/20 11:00:06;;;;;;;7.82;2.10;;;;;;;31.69;nan;-24691.16;4975295;28;20169;-61
2022/07/20 11:02:33;;;;;;;2.20;1.90;;;;;;;31.65;nan;-24690.06;4977402;28;20172;-61
2022/07/20 11:04:59;;;;;;;2.22;1.73;;;;;;;31.49;nan;-24685.84;4974938;28;20196;-60
2022/07/20 11:07:33;;;;;;;10.38;1.80;;;;;;;31.37;nan;-24682.59;4977239;28;20208;-60
2022/07/20 11:10:00;;;;;;;2.08;1.88;;;;;;;31.56;nan;-24687.75;4979812;28;20188;-61
2022/07/20 11:12:29;;;;;;;3.90;2.10;;;;;;;28.09;nan;-24594.16;4977058;28;20188;-61
2022/07/20 11:14:56;;;;;;;2.80;1.90;;;;;;;31.16;nan;-24676.88;4976972;28;20252;-60
2022/07/20 11:17:22;;;;;;;2.25;1.83;;;;;;;31.28;nan;-24680.00;4976833;28;20183;-60
2022/07/20 11:19:48;;;;;;;2.08;1.88;;;;;;;31.67;nan;-24690.63;4975148;28;20239;-60
2022/07/20 11:22:14;;;;;;;1.65;1.55;;;;;;;32.03;nan;-24700.13;4974290;28;20177;-62
2022/07/20 11:24:39;;;;;;;2.30;1.88;;;;;;;32.04;nan;-24700.53;4976745;28;20185;-60
2022/07/20 11:27:15;;;;;;;2.10;1.80;;;;;;;32.12;nan;-24702.72;4979403;28;20275;-60
2022/07/20 11:29:48;;;;;;;2.72;1.92;;;;;;;31.79;nan;-24693.75;4981371;28;20700;-62
2022/07/20 11:32:14;;;;;;;1.90;1.70;;;;;;;31.07;nan;-24674.56;4975833;28;20177;-61
2022/07/20 11:34:47;;;;;;;1.90;1.70;;;;;;;31.51;nan;-24686.41;4980015;28;20644;-61
2022/07/20 11:37:15;;;;;;;1.67;1.58;;;;;;;31.47;nan;-24685.31;4982357;28;20183;-62
2022/07/20 11:39:41;;;;;;;3.70;2.00;;;;;;;31.53;nan;-24686.94;4979567;28;20220;-61
2022/07/20 11:42:12;;;;;;;2.10;1.70;;;;;;;31.66;nan;-24690.22;4977100;28;20177;-60
2022/07/20 11:44:38;;;;;;;2.20;1.80;;;;;;;32.01;nan;-24699.84;4979623;28;20184;-60
2022/07/20 11:47:04;;;;;;;2.33;1.90;;;;;;;32.02;nan;-24699.97;4976323;28;20231;-61